« Back
NWS Peachtree City, Ga » Text Product » CSG Terminal Aerodrome Forecast


Printer-friendly Version
Current Version              Previous Versions:   1  2  3  4  5  6  7  8  9  

Terminal Aerodrome Forecast

039
FTUS42 KFFC 301901 AAA
TAFCSG
TAF AMD
KCSG 301901Z 3019/3118 28009KT P6SM SCT025 BKN035
     FM302000 30012KT P6SM BKN040
     FM310000 30008KT P6SM SCT050
     FM310500 VRB03KT P6SM SCT020
      TEMPO 3108/3112 4SM BR
     FM311400 20005KT P6SM BKN035=

USA.gov is the U.S. government's official web portal to all federal, state and local government web resources and services.